sensor_id;sensor_type;location;lat;lon;timestamp;temperature;humidity
13389;DHT22;6764;53.250;10.410;2023-02-18T00:01:56;7.00;99.90
13389;DHT22;6764;53.250;10.410;2023-02-18T00:04:22;7.00;99.90
13389;DHT22;6764;53.250;10.410;2023-02-18T00:06:48;7.00;99.90
13389;DHT22;6764;53.250;10.410;2023-02-18T00:09:13;7.00;99.90
13389;DHT22;6764;53.250;10.410;2023-02-18T00:11:39;7.00;99.90
13389;DHT22;6764;53.250;10.410;2023-02-18T00:14:09;7.00;99.90
13389;DHT22;6764;53.250;10.410;2023-02-18T00:16:35;7.00;99.90
13389;DHT22;6764;53.250;10.410;2023-02-18T00:19:04;7.00;99.90
13389;DHT22;6764;53.250;10.410;2023-02-18T00:21:31;6.90;99.90
13389;DHT22;6764;53.250;10.410;2023-02-18T00:23:57;6.90;99.90
13389;DHT22;6764;53.250;10.410;2023-02-18T00:26:23;6.90;99.90
13389;DHT22;6764;53.250;10.410;2023-02-18T00:28:49;6.90;99.90
13389;DHT22;6764;53.250;10.410;2023-02-18T00:31:19;6.90;99.90
13389;DHT22;6764;53.250;10.410;2023-02-18T00:33:45;6.90;99.90
13389;DHT22;6764;53.250;10.410;2023-02-18T00:36:14;6.90;99.90
13389;DHT22;6764;53.250;10.410;2023-02-18T00:38:43;6.80;99.90
13389;DHT22;6764;53.250;10.410;2023-02-18T00:41:09;6.90;99.90
13389;DHT22;6764;53.250;10.410;2023-02-18T00:43:35;6.90;99.90
13389;DHT22;6764;53.250;10.410;2023-02-18T00:46:00;6.90;99.90
13389;DHT22;6764;53.250;10.410;2023-02-18T00:48:26;6.90;99.90
13389;DHT22;6764;53.250;10.410;2023-02-18T00:50:52;6.80;99.90
13389;DHT22;6764;53.250;10.410;2023-02-18T00:53:17;6.80;99.90
13389;DHT22;6764;53.250;10.410;2023-02-18T00:55:44;6.80;99.90
13389;DHT22;6764;53.250;10.410;2023-02-18T00:58:12;6.80;99.90
13389;DHT22;6764;53.250;10.410;2023-02-18T01:00:38;6.80;99.90
13389;DHT22;6764;53.250;10.410;2023-02-18T01:03:04;6.70;99.90
13389;DHT22;6764;53.250;10.410;2023-02-18T01:05:32;6.70;99.90
13389;DHT22;6764;53.250;10.410;2023-02-18T01:07:57;6.60;99.90
13389;DHT22;6764;53.250;10.410;2023-02-18T01:10:23;6.60;99.90
13389;DHT22;6764;53.250;10.410;2023-02-18T01:12:49;6.60;99.90
13389;DHT22;6764;53.250;10.410;2023-02-18T01:15:16;6.50;99.90
13389;DHT22;6764;53.250;10.410;2023-02-18T01:17:41;6.50;99.90
13389;DHT22;6764;53.250;10.410;2023-02-18T01:20:08;6.50;99.90
13389;DHT22;6764;53.250;10.410;2023-02-18T01:22:34;6.50;99.90
13389;DHT22;6764;53.250;10.410;2023-02-18T01:25:00;6.50;99.90
13389;DHT22;6764;53.250;10.410;2023-02-18T01:27:26;6.50;99.90
13389;DHT22;6764;53.250;10.410;2023-02-18T01:29:51;6.40;99.90
13389;DHT22;6764;53.250;10.410;2023-02-18T01:32:17;6.40;99.90
13389;DHT22;6764;53.250;10.410;2023-02-18T01:34:42;6.30;99.90
13389;DHT22;6764;53.250;10.410;2023-02-18T01:37:08;6.30;99.90
13389;DHT22;6764;53.250;10.410;2023-02-18T01:39:33;6.30;99.90
13389;DHT22;6764;53.250;10.410;2023-02-18T01:41:59;6.30;99.90
13389;DHT22;6764;53.250;10.410;2023-02-18T01:44:26;6.30;99.90
13389;DHT22;6764;53.250;10.410;2023-02-18T01:46:52;6.20;99.90
13389;DHT22;6764;53.250;10.410;2023-02-18T01:49:27;6.20;99.90
13389;DHT22;6764;53.250;10.410;2023-02-18T01:52:05;6.30;99.90
13389;DHT22;6764;53.250;10.410;2023-02-18T01:54:39;6.30;99.90
13389;DHT22;6764;53.250;10.410;2023-02-18T01:57:09;6.30;99.90
13389;DHT22;6764;53.250;10.410;2023-02-18T01:59:48;6.30;99.90
13389;DHT22;6764;53.250;10.410;2023-02-18T02:02:18;6.30;99.90
13389;DHT22;6764;53.250;10.410;2023-02-18T02:04:45;6.30;99.90
13389;DHT22;6764;53.250;10.410;2023-02-18T02:07:11;6.30;99.90
13389;DHT22;6764;53.250;10.410;2023-02-18T02:09:38;6.30;99.90
13389;DHT22;6764;53.250;10.410;2023-02-18T02:24:18;6.20;99.90
13389;DHT22;6764;53.250;10.410;2023-02-18T02:35:25;6.40;99.90
13389;DHT22;6764;53.250;10.410;2023-02-18T02:38:00;6.40;99.90
13389;DHT22;6764;53.250;10.410;2023-02-18T02:40:54;6.40;99.90
13389;DHT22;6764;53.250;10.410;2023-02-18T02:43:51;6.40;99.90
13389;DHT22;6764;53.250;10.410;2023-02-18T02:49:12;6.60;99.90
13389;DHT22;6764;53.250;10.410;2023-02-18T02:52:09;6.60;99.90
13389;DHT22;6764;53.250;10.410;2023-02-18T02:54:36;6.70;99.90
13389;DHT22;6764;53.250;10.410;2023-02-18T02:57:40;6.70;99.90
13389;DHT22;6764;53.250;10.410;2023-02-18T03:00:00;6.70;99.90
13389;DHT22;6764;53.250;10.410;2023-02-18T03:11:16;6.80;99.90
13389;DHT22;6764;53.250;10.410;2023-02-18T03:14:09;6.90;99.90
13389;DHT22;6764;53.250;10.410;2023-02-18T03:19:32;7.00;99.90
13389;DHT22;6764;53.250;10.410;2023-02-18T03:22:03;7.10;99.90
13389;DHT22;6764;53.250;10.410;2023-02-18T03:24:39;7.10;99.90
13389;DHT22;6764;53.250;10.410;2023-02-18T03:27:20;7.00;99.90
13389;DHT22;6764;53.250;10.410;2023-02-18T03:29:50;7.00;99.90
13389;DHT22;6764;53.250;10.410;2023-02-18T03:32:19;7.00;99.90
13389;DHT22;6764;53.250;10.410;2023-02-18T03:34:49;7.00;99.90
13389;DHT22;6764;53.250;10.410;2023-02-18T03:37:17;7.10;99.90
13389;DHT22;6764;53.250;10.410;2023-02-18T03:39:47;7.10;99.90
13389;DHT22;6764;53.250;10.410;2023-02-18T03:42:15;7.10;99.90
13389;DHT22;6764;53.250;10.410;2023-02-18T03:44:41;7.10;99.90
13389;DHT22;6764;53.250;10.410;2023-02-18T03:47:07;7.10;99.90
13389;DHT22;6764;53.250;10.410;2023-02-18T03:49:32;7.20;99.90
13389;DHT22;6764;53.250;10.410;2023-02-18T03:51:58;7.20;99.90
13389;DHT22;6764;53.250;10.410;2023-02-18T03:54:24;7.20;99.90
13389;DHT22;6764;53.250;10.410;2023-02-18T03:56:49;7.20;99.90
13389;DHT22;6764;53.250;10.410;2023-02-18T03:59:15;7.20;99.90
13389;DHT22;6764;53.250;10.410;2023-02-18T04:01:40;7.20;99.90
13389;DHT22;6764;53.250;10.410;2023-02-18T04:04:06;7.30;99.90
13389;DHT22;6764;53.250;10.410;2023-02-18T04:06:31;7.30;99.90
13389;DHT22;6764;53.250;10.410;2023-02-18T04:08:57;7.30;99.90
13389;DHT22;6764;53.250;10.410;2023-02-18T04:11:23;7.30;99.90
13389;DHT22;6764;53.250;10.410;2023-02-18T04:13:49;7.40;99.90
13389;DHT22;6764;53.250;10.410;2023-02-18T04:16:14;7.50;99.90
13389;DHT22;6764;53.250;10.410;2023-02-18T04:18:40;7.50;99.90
13389;DHT22;6764;53.250;10.410;2023-02-18T04:21:06;7.60;99.90
13389;DHT22;6764;53.250;10.410;2023-02-18T04:23:31;7.60;99.90
13389;DHT22;6764;53.250;10.410;2023-02-18T04:25:57;7.60;99.90
13389;DHT22;6764;53.250;10.410;2023-02-18T04:28:22;7.70;99.90
13389;DHT22;6764;53.250;10.410;2023-02-18T04:30:48;7.70;99.90
13389;DHT22;6764;53.250;10.410;2023-02-18T04:33:14;7.60;99.90
13389;DHT22;6764;53.250;10.410;2023-02-18T04:35:40;7.60;99.90
13389;DHT22;6764;53.250;10.410;2023-02-18T04:38:06;7.60;99.90
13389;DHT22;6764;53.250;10.410;2023-02-18T04:40:32;7.60;99.90
13389;DHT22;6764;53.250;10.410;2023-02-18T04:42:58;7.60;99.90
13389;DHT22;6764;53.250;10.410;2023-02-18T04:45:24;7.70;99.90
13389;DHT22;6764;53.250;10.410;2023-02-18T04:47:51;7.70;99.90
13389;DHT22;6764;53.250;10.410;2023-02-18T04:50:17;7.60;99.90
13389;DHT22;6764;53.250;10.410;2023-02-18T04:52:43;7.60;99.90
13389;DHT22;6764;53.250;10.410;2023-02-18T04:55:09;7.60;99.90
13389;DHT22;6764;53.250;10.410;2023-02-18T04:57:34;7.60;99.90
13389;DHT22;6764;53.250;10.410;2023-02-18T05:00:00;7.60;99.90
13389;DHT22;6764;53.250;10.410;2023-02-18T05:02:25;7.60;99.90
13389;DHT22;6764;53.250;10.410;2023-02-18T05:04:51;7.70;99.90
13389;DHT22;6764;53.250;10.410;2023-02-18T05:07:17;7.70;99.90
13389;DHT22;6764;53.250;10.410;2023-02-18T05:09:43;7.70;99.90
13389;DHT22;6764;53.250;10.410;2023-02-18T05:12:08;7.60;99.90
13389;DHT22;6764;53.250;10.410;2023-02-18T05:14:34;7.60;99.90
13389;DHT22;6764;53.250;10.410;2023-02-18T05:16:59;7.50;99.90
13389;DHT22;6764;53.250;10.410;2023-02-18T05:19:25;7.50;99.90
13389;DHT22;6764;53.250;10.410;2023-02-18T05:21:51;7.50;99.90
13389;DHT22;6764;53.250;10.410;2023-02-18T05:24:16;7.50;99.90
13389;DHT22;6764;53.250;10.410;2023-02-18T05:26:42;7.60;99.90
13389;DHT22;6764;53.250;10.410;2023-02-18T05:29:08;7.50;99.90
13389;DHT22;6764;53.250;10.410;2023-02-18T05:31:33;7.60;99.90
13389;DHT22;6764;53.250;10.410;2023-02-18T05:33:59;7.60;99.90
13389;DHT22;6764;53.250;10.410;2023-02-18T05:36:24;7.60;99.90
13389;DHT22;6764;53.250;10.410;2023-02-18T05:38:50;7.60;99.90
13389;DHT22;6764;53.250;10.410;2023-02-18T05:41:16;7.60;99.90
13389;DHT22;6764;53.250;10.410;2023-02-18T05:43:41;7.60;99.90
13389;DHT22;6764;53.250;10.410;2023-02-18T05:46:26;7.60;99.90
13389;DHT22;6764;53.250;10.410;2023-02-18T05:48:51;7.60;99.90
13389;DHT22;6764;53.250;10.410;2023-02-18T05:51:17;7.60;99.90
13389;DHT22;6764;53.250;10.410;2023-02-18T05:53:42;7.60;99.90
13389;DHT22;6764;53.250;10.410;2023-02-18T05:56:08;7.60;99.90
13389;DHT22;6764;53.250;10.410;2023-02-18T05:58:34;7.60;99.90
13389;DHT22;6764;53.250;10.410;2023-02-18T06:00:59;7.70;99.90
13389;DHT22;6764;53.250;10.410;2023-02-18T06:03:25;7.70;99.90
13389;DHT22;6764;53.250;10.410;2023-02-18T06:05:51;7.80;99.90
13389;DHT22;6764;53.250;10.410;2023-02-18T06:08:17;7.80;99.90
13389;DHT22;6764;53.250;10.410;2023-02-18T06:10:45;7.90;99.90
13389;DHT22;6764;53.250;10.410;2023-02-18T06:13:11;7.90;99.90
13389;DHT22;6764;53.250;10.410;2023-02-18T06:15:37;7.90;99.90
13389;DHT22;6764;53.250;10.410;2023-02-18T06:18:03;7.90;99.90
13389;DHT22;6764;53.250;10.410;2023-02-18T06:20:29;7.90;99.90
13389;DHT22;6764;53.250;10.410;2023-02-18T06:22:55;7.90;99.90
13389;DHT22;6764;53.250;10.410;2023-02-18T06:25:20;7.90;99.90
13389;DHT22;6764;53.250;10.410;2023-02-18T06:27:46;7.90;99.90
13389;DHT22;6764;53.250;10.410;2023-02-18T06:30:12;8.00;99.90
13389;DHT22;6764;53.250;10.410;2023-02-18T06:32:38;8.00;99.90
13389;DHT22;6764;53.250;10.410;2023-02-18T06:35:03;8.00;99.90
13389;DHT22;6764;53.250;10.410;2023-02-18T06:37:29;8.00;99.90
13389;DHT22;6764;53.250;10.410;2023-02-18T06:39:55;8.10;99.90
13389;DHT22;6764;53.250;10.410;2023-02-18T06:42:20;8.10;99.90
13389;DHT22;6764;53.250;10.410;2023-02-18T06:44:46;8.10;99.90
13389;DHT22;6764;53.250;10.410;2023-02-18T06:47:11;8.10;99.90
13389;DHT22;6764;53.250;10.410;2023-02-18T06:49:37;8.10;99.90
13389;DHT22;6764;53.250;10.410;2023-02-18T06:52:04;8.10;99.90
13389;DHT22;6764;53.250;10.410;2023-02-18T06:54:29;8.10;99.90
13389;DHT22;6764;53.250;10.410;2023-02-18T06:56:55;8.10;99.90
13389;DHT22;6764;53.250;10.410;2023-02-18T06:59:21;8.10;99.90
13389;DHT22;6764;53.250;10.410;2023-02-18T07:01:46;8.10;99.90
13389;DHT22;6764;53.250;10.410;2023-02-18T07:04:12;8.10;99.90
13389;DHT22;6764;53.250;10.410;2023-02-18T07:06:38;8.00;99.90
13389;DHT22;6764;53.250;10.410;2023-02-18T07:09:04;8.00;99.90
13389;DHT22;6764;53.250;10.410;2023-02-18T07:11:30;8.10;99.90
13389;DHT22;6764;53.250;10.410;2023-02-18T07:13:56;8.10;99.90
13389;DHT22;6764;53.250;10.410;2023-02-18T07:16:21;8.10;99.90
13389;DHT22;6764;53.250;10.410;2023-02-18T07:18:47;8.10;99.90
13389;DHT22;6764;53.250;10.410;2023-02-18T07:21:12;8.20;99.90
13389;DHT22;6764;53.250;10.410;2023-02-18T07:23:38;8.20;99.90
13389;DHT22;6764;53.250;10.410;2023-02-18T07:26:12;8.20;99.90
13389;DHT22;6764;53.250;10.410;2023-02-18T07:28:39;8.20;99.90
13389;DHT22;6764;53.250;10.410;2023-02-18T07:31:05;8.30;99.90
13389;DHT22;6764;53.250;10.410;2023-02-18T07:33:31;8.40;99.90
13389;DHT22;6764;53.250;10.410;2023-02-18T07:35:59;8.30;99.90
13389;DHT22;6764;53.250;10.410;2023-02-18T07:38:26;8.40;99.90
13389;DHT22;6764;53.250;10.410;2023-02-18T07:40:51;8.30;99.90
13389;DHT22;6764;53.250;10.410;2023-02-18T07:43:17;8.40;99.90
13389;DHT22;6764;53.250;10.410;2023-02-18T07:45:43;8.30;99.90
13389;DHT22;6764;53.250;10.410;2023-02-18T07:48:09;8.30;99.90
13389;DHT22;6764;53.250;10.410;2023-02-18T07:50:38;8.30;99.90
13389;DHT22;6764;53.250;10.410;2023-02-18T07:53:04;8.40;99.90
13389;DHT22;6764;53.250;10.410;2023-02-18T07:55:30;8.40;99.90
13389;DHT22;6764;53.250;10.410;2023-02-18T07:58:26;8.40;99.90
13389;DHT22;6764;53.250;10.410;2023-02-18T08:00:53;8.30;99.90
13389;DHT22;6764;53.250;10.410;2023-02-18T08:03:21;8.30;99.90
13389;DHT22;6764;53.250;10.410;2023-02-18T08:05:48;8.30;99.90
13389;DHT22;6764;53.250;10.410;2023-02-18T08:08:15;8.30;99.90
13389;DHT22;6764;53.250;10.410;2023-02-18T08:10:42;8.30;99.90
13389;DHT22;6764;53.250;10.410;2023-02-18T08:13:08;8.30;99.90
13389;DHT22;6764;53.250;10.410;2023-02-18T08:15:34;8.40;99.90
13389;DHT22;6764;53.250;10.410;2023-02-18T08:18:00;8.40;99.90
13389;DHT22;6764;53.250;10.410;2023-02-18T08:20:26;8.50;99.90
13389;DHT22;6764;53.250;10.410;2023-02-18T08:22:51;8.40;99.90
13389;DHT22;6764;53.250;10.410;2023-02-18T08:25:17;8.40;99.90
13389;DHT22;6764;53.250;10.410;2023-02-18T08:27:43;8.40;99.90
13389;DHT22;6764;53.250;10.410;2023-02-18T08:30:09;8.40;99.90
13389;DHT22;6764;53.250;10.410;2023-02-18T08:32:35;8.50;99.90
13389;DHT22;6764;53.250;10.410;2023-02-18T08:35:01;8.50;99.90
13389;DHT22;6764;53.250;10.410;2023-02-18T08:37:27;8.60;99.90
13389;DHT22;6764;53.250;10.410;2023-02-18T08:39:53;8.60;99.90
13389;DHT22;6764;53.250;10.410;2023-02-18T08:42:19;8.70;99.90
13389;DHT22;6764;53.250;10.410;2023-02-18T08:44:45;8.60;99.90
13389;DHT22;6764;53.250;10.410;2023-02-18T08:47:10;8.60;99.90
13389;DHT22;6764;53.250;10.410;2023-02-18T08:49:36;8.60;99.90
13389;DHT22;6764;53.250;10.410;2023-02-18T08:52:02;8.60;99.90
13389;DHT22;6764;53.250;10.410;2023-02-18T08:54:28;8.60;99.90
13389;DHT22;6764;53.250;10.410;2023-02-18T08:56:54;8.60;99.90
13389;DHT22;6764;53.250;10.410;2023-02-18T08:59:25;8.60;99.90
13389;DHT22;6764;53.250;10.410;2023-02-18T09:01:51;8.60;99.90
13389;DHT22;6764;53.250;10.410;2023-02-18T09:04:17;8.50;99.90
13389;DHT22;6764;53.250;10.410;2023-02-18T09:06:43;8.60;99.90
13389;DHT22;6764;53.250;10.410;2023-02-18T09:09:08;8.50;99.90
13389;DHT22;6764;53.250;10.410;2023-02-18T09:11:35;8.40;99.90
13389;DHT22;6764;53.250;10.410;2023-02-18T09:14:01;8.40;99.90
13389;DHT22;6764;53.250;10.410;2023-02-18T09:16:27;8.40;99.90
13389;DHT22;6764;53.250;10.410;2023-02-18T09:18:54;8.50;99.90
13389;DHT22;6764;53.250;10.410;2023-02-18T09:21:21;8.40;99.90
13389;DHT22;6764;53.250;10.410;2023-02-18T09:23:48;8.40;99.90
13389;DHT22;6764;53.250;10.410;2023-02-18T09:26:15;8.60;99.90
13389;DHT22;6764;53.250;10.410;2023-02-18T09:28:41;8.60;99.90
13389;DHT22;6764;53.250;10.410;2023-02-18T09:31:09;8.60;99.90
13389;DHT22;6764;53.250;10.410;2023-02-18T09:33:39;8.60;99.90
13389;DHT22;6764;53.250;10.410;2023-02-18T09:36:06;8.60;99.90
13389;DHT22;6764;53.250;10.410;2023-02-18T09:38:31;8.60;99.90
13389;DHT22;6764;53.250;10.410;2023-02-18T09:40:59;8.60;99.90
13389;DHT22;6764;53.250;10.410;2023-02-18T09:43:28;8.50;99.90
13389;DHT22;6764;53.250;10.410;2023-02-18T09:45:54;8.50;99.90
13389;DHT22;6764;53.250;10.410;2023-02-18T09:48:27;8.50;99.90
13389;DHT22;6764;53.250;10.410;2023-02-18T09:50:54;8.50;99.90
13389;DHT22;6764;53.250;10.410;2023-02-18T09:53:21;8.50;99.90
13389;DHT22;6764;53.250;10.410;2023-02-18T09:55:47;8.50;99.90
13389;DHT22;6764;53.250;10.410;2023-02-18T09:58:16;8.60;99.90
13389;DHT22;6764;53.250;10.410;2023-02-18T10:00:46;8.60;99.90
13389;DHT22;6764;53.250;10.410;2023-02-18T10:03:19;8.70;99.90
13389;DHT22;6764;53.250;10.410;2023-02-18T10:08:34;8.70;99.90
13389;DHT22;6764;53.250;10.410;2023-02-18T10:11:00;8.70;99.90
13389;DHT22;6764;53.250;10.410;2023-02-18T10:13:32;8.80;99.90
13389;DHT22;6764;53.250;10.410;2023-02-18T10:15:58;8.90;99.90
13389;DHT22;6764;53.250;10.410;2023-02-18T10:18:29;8.80;99.90
13389;DHT22;6764;53.250;10.410;2023-02-18T10:21:10;8.90;99.90
13389;DHT22;6764;53.250;10.410;2023-02-18T10:23:42;8.90;99.90
13389;DHT22;6764;53.250;10.410;2023-02-18T10:26:14;9.00;99.90
13389;DHT22;6764;53.250;10.410;2023-02-18T10:28:40;9.00;99.90
13389;DHT22;6764;53.250;10.410;2023-02-18T10:31:11;9.10;99.90
13389;DHT22;6764;53.250;10.410;2023-02-18T10:33:52;9.20;99.90
13389;DHT22;6764;53.250;10.410;2023-02-18T10:36:35;9.30;99.90
13389;DHT22;6764;53.250;10.410;2023-02-18T10:39:18;9.40;99.90
13389;DHT22;6764;53.250;10.410;2023-02-18T10:50:39;9.70;99.90
13389;DHT22;6764;53.250;10.410;2023-02-18T10:53:23;9.80;99.90
13389;DHT22;6764;53.250;10.410;2023-02-18T10:55:52;9.90;99.90
13389;DHT22;6764;53.250;10.410;2023-02-18T10:58:44;10.00;99.90
13389;DHT22;6764;53.250;10.410;2023-02-18T11:01:19;10.00;99.90
13389;DHT22;6764;53.250;10.410;2023-02-18T11:03:48;10.10;99.90
13389;DHT22;6764;53.250;10.410;2023-02-18T11:08:43;10.30;99.90
13389;DHT22;6764;53.250;10.410;2023-02-18T11:11:20;10.40;99.90
13389;DHT22;6764;53.250;10.410;2023-02-18T11:13:52;10.40;99.90
13389;DHT22;6764;53.250;10.410;2023-02-18T11:16:21;10.50;99.90
13389;DHT22;6764;53.250;10.410;2023-02-18T11:18:48;10.60;99.90
13389;DHT22;6764;53.250;10.410;2023-02-18T11:23:51;10.70;99.90
13389;DHT22;6764;53.250;10.410;2023-02-18T11:26:26;10.70;99.90
13389;DHT22;6764;53.250;10.410;2023-02-18T11:29:00;10.70;99.90
13389;DHT22;6764;53.250;10.410;2023-02-18T11:31:39;10.80;99.90
13389;DHT22;6764;53.250;10.410;2023-02-18T11:34:22;10.70;99.90
13389;DHT22;6764;53.250;10.410;2023-02-18T11:36:49;10.80;99.90
13389;DHT22;6764;53.250;10.410;2023-02-18T11:39:23;10.80;99.90
13389;DHT22;6764;53.250;10.410;2023-02-18T11:41:59;10.90;99.90
13389;DHT22;6764;53.250;10.410;2023-02-18T11:44:41;10.90;99.90
13389;DHT22;6764;53.250;10.410;2023-02-18T11:49:41;11.00;99.90
13389;DHT22;6764;53.250;10.410;2023-02-18T11:55:23;10.80;99.90
13389;DHT22;6764;53.250;10.410;2023-02-18T12:00:29;10.90;99.90
13389;DHT22;6764;53.250;10.410;2023-02-18T12:02:59;10.80;99.90
13389;DHT22;6764;53.250;10.410;2023-02-18T12:05:27;10.90;99.90
13389;DHT22;6764;53.250;10.410;2023-02-18T12:07:56;11.00;99.90
13389;DHT22;6764;53.250;10.410;2023-02-18T12:10:27;10.90;99.90
13389;DHT22;6764;53.250;10.410;2023-02-18T12:13:02;10.80;99.90
13389;DHT22;6764;53.250;10.410;2023-02-18T12:21:14;10.80;99.90
13389;DHT22;6764;53.250;10.410;2023-02-18T12:27:02;10.80;99.90
13389;DHT22;6764;53.250;10.410;2023-02-18T12:32:23;10.80;99.90
13389;DHT22;6764;53.250;10.410;2023-02-18T12:37:55;10.90;99.90
13389;DHT22;6764;53.250;10.410;2023-02-18T12:51:59;10.90;99.90
13389;DHT22;6764;53.250;10.410;2023-02-18T13:03:33;11.00;99.90
13389;DHT22;6764;53.250;10.410;2023-02-18T13:09:02;11.10;99.90
13389;DHT22;6764;53.250;10.410;2023-02-18T13:14:26;11.10;99.90
13389;DHT22;6764;53.250;10.410;2023-02-18T13:16:55;11.10;99.90
13389;DHT22;6764;53.250;10.410;2023-02-18T13:19:36;11.10;99.90
13389;DHT22;6764;53.250;10.410;2023-02-18T13:22:06;11.10;99.90
13389;DHT22;6764;53.250;10.410;2023-02-18T13:24:37;11.00;99.90
13389;DHT22;6764;53.250;10.410;2023-02-18T13:32:46;11.10;99.90
13389;DHT22;6764;53.250;10.410;2023-02-18T13:35:22;11.00;99.90
13389;DHT22;6764;53.250;10.410;2023-02-18T13:38:16;11.10;99.90
13389;DHT22;6764;53.250;10.410;2023-02-18T13:40:46;11.10;99.90
13389;DHT22;6764;53.250;10.410;2023-02-18T13:46:20;11.20;99.90
13389;DHT22;6764;53.250;10.410;2023-02-18T13:49:03;11.20;99.90
13389;DHT22;6764;53.250;10.410;2023-02-18T13:51:43;11.20;99.90
13389;DHT22;6764;53.250;10.410;2023-02-18T13:57:20;11.20;99.90
13389;DHT22;6764;53.250;10.410;2023-02-18T13:59:55;11.20;99.90
13389;DHT22;6764;53.250;10.410;2023-02-18T14:12:41;11.10;99.90
13389;DHT22;6764;53.250;10.410;2023-02-18T14:25:53;11.00;99.90
13389;DHT22;6764;53.250;10.410;2023-02-18T14:34:05;11.00;99.90
13389;DHT22;6764;53.250;10.410;2023-02-18T14:45:17;10.80;99.90
13389;DHT22;6764;53.250;10.410;2023-02-18T14:50:42;10.80;99.90
13389;DHT22;6764;53.250;10.410;2023-02-18T14:53:16;10.70;99.90
13389;DHT22;6764;53.250;10.410;2023-02-18T14:55:45;10.70;99.90
13389;DHT22;6764;53.250;10.410;2023-02-18T15:00:47;10.70;99.90
13389;DHT22;6764;53.250;10.410;2023-02-18T15:03:16;10.70;99.90
13389;DHT22;6764;53.250;10.410;2023-02-18T15:05:44;10.80;99.90
13389;DHT22;6764;53.250;10.410;2023-02-18T15:08:21;10.80;99.90
13389;DHT22;6764;53.250;10.410;2023-02-18T15:11:03;10.80;99.90
13389;DHT22;6764;53.250;10.410;2023-02-18T15:13:35;10.80;99.90
13389;DHT22;6764;53.250;10.410;2023-02-18T15:16:07;10.60;99.90
13389;DHT22;6764;53.250;10.410;2023-02-18T15:18:39;10.50;99.90
13389;DHT22;6764;53.250;10.410;2023-02-18T15:21:08;10.40;99.90
13389;DHT22;6764;53.250;10.410;2023-02-18T15:23:36;10.50;99.90
13389;DHT22;6764;53.250;10.410;2023-02-18T15:26:03;10.50;99.90
13389;DHT22;6764;53.250;10.410;2023-02-18T15:28:31;10.50;99.90
13389;DHT22;6764;53.250;10.410;2023-02-18T15:30:59;10.50;99.90
13389;DHT22;6764;53.250;10.410;2023-02-18T15:33:25;10.40;99.90
13389;DHT22;6764;53.250;10.410;2023-02-18T15:35:51;10.30;99.90
13389;DHT22;6764;53.250;10.410;2023-02-18T15:38:24;10.40;99.90
13389;DHT22;6764;53.250;10.410;2023-02-18T15:40:52;10.40;99.90
13389;DHT22;6764;53.250;10.410;2023-02-18T15:43:23;10.40;99.90
13389;DHT22;6764;53.250;10.410;2023-02-18T15:45:53;10.30;99.90
13389;DHT22;6764;53.250;10.410;2023-02-18T15:48:44;10.40;99.90
13389;DHT22;6764;53.250;10.410;2023-02-18T15:51:13;10.30;99.90
13389;DHT22;6764;53.250;10.410;2023-02-18T15:53:42;10.40;99.90
13389;DHT22;6764;53.250;10.410;2023-02-18T15:56:11;10.40;99.90
13389;DHT22;6764;53.250;10.410;2023-02-18T15:58:39;10.40;99.90
13389;DHT22;6764;53.250;10.410;2023-02-18T16:01:06;10.40;99.90
13389;DHT22;6764;53.250;10.410;2023-02-18T16:06:26;10.40;99.90
13389;DHT22;6764;53.250;10.410;2023-02-18T16:09:22;10.40;99.90
13389;DHT22;6764;53.250;10.410;2023-02-18T16:11:49;10.40;99.90
13389;DHT22;6764;53.250;10.410;2023-02-18T16:19:24;10.20;99.90
13389;DHT22;6764;53.250;10.410;2023-02-18T16:21:50;10.30;99.90
13389;DHT22;6764;53.250;10.410;2023-02-18T16:24:27;10.20;99.90
13389;DHT22;6764;53.250;10.410;2023-02-18T16:26:59;10.30;99.90
13389;DHT22;6764;53.250;10.410;2023-02-18T16:29:51;10.30;99.90
13389;DHT22;6764;53.250;10.410;2023-02-18T16:32:17;10.20;99.90
13389;DHT22;6764;53.250;10.410;2023-02-18T16:34:42;10.20;99.90
13389;DHT22;6764;53.250;10.410;2023-02-18T16:37:08;10.20;99.90
13389;DHT22;6764;53.250;10.410;2023-02-18T16:39:53;10.10;99.90
13389;DHT22;6764;53.250;10.410;2023-02-18T16:42:19;10.00;99.90
13389;DHT22;6764;53.250;10.410;2023-02-18T16:44:45;10.10;99.90
13389;DHT22;6764;53.250;10.410;2023-02-18T16:47:14;10.00;99.90
13389;DHT22;6764;53.250;10.410;2023-02-18T16:49:46;10.00;99.90
13389;DHT22;6764;53.250;10.410;2023-02-18T16:52:14;10.10;99.90
13389;DHT22;6764;53.250;10.410;2023-02-18T16:54:41;10.00;99.90
13389;DHT22;6764;53.250;10.410;2023-02-18T16:57:09;10.00;99.90
13389;DHT22;6764;53.250;10.410;2023-02-18T16:59:34;9.90;99.90
13389;DHT22;6764;53.250;10.410;2023-02-18T17:02:00;10.00;99.90
13389;DHT22;6764;53.250;10.410;2023-02-18T17:04:26;9.90;99.90
13389;DHT22;6764;53.250;10.410;2023-02-18T17:06:51;9.90;99.90
13389;DHT22;6764;53.250;10.410;2023-02-18T17:09:19;9.80;99.90
13389;DHT22;6764;53.250;10.410;2023-02-18T17:11:50;9.70;99.90
13389;DHT22;6764;53.250;10.410;2023-02-18T17:14:18;9.70;99.90
13389;DHT22;6764;53.250;10.410;2023-02-18T17:16:45;9.60;99.90
13389;DHT22;6764;53.250;10.410;2023-02-18T17:19:11;9.40;99.90
13389;DHT22;6764;53.250;10.410;2023-02-18T17:21:36;9.20;99.90
13389;DHT22;6764;53.250;10.410;2023-02-18T17:24:02;9.30;99.90
13389;DHT22;6764;53.250;10.410;2023-02-18T17:26:29;9.20;99.90
13389;DHT22;6764;53.250;10.410;2023-02-18T17:28:57;9.20;99.90
13389;DHT22;6764;53.250;10.410;2023-02-18T17:31:27;9.20;99.90
13389;DHT22;6764;53.250;10.410;2023-02-18T17:33:55;9.20;99.90
13389;DHT22;6764;53.250;10.410;2023-02-18T17:36:21;9.10;99.90
13389;DHT22;6764;53.250;10.410;2023-02-18T17:38:47;8.90;99.90
13389;DHT22;6764;53.250;10.410;2023-02-18T17:41:13;9.00;99.90
13389;DHT22;6764;53.250;10.410;2023-02-18T17:43:39;8.80;99.90
13389;DHT22;6764;53.250;10.410;2023-02-18T17:46:08;8.80;99.90
13389;DHT22;6764;53.250;10.410;2023-02-18T17:48:34;8.70;99.90
13389;DHT22;6764;53.250;10.410;2023-02-18T17:50:59;8.60;99.90
13389;DHT22;6764;53.250;10.410;2023-02-18T17:53:25;8.60;99.90
13389;DHT22;6764;53.250;10.410;2023-02-18T17:55:51;8.60;99.90
13389;DHT22;6764;53.250;10.410;2023-02-18T17:58:17;8.50;99.90
13389;DHT22;6764;53.250;10.410;2023-02-18T18:00:55;8.50;99.90
13389;DHT22;6764;53.250;10.410;2023-02-18T18:03:21;8.50;99.90
13389;DHT22;6764;53.250;10.410;2023-02-18T18:05:48;8.40;99.90
13389;DHT22;6764;53.250;10.410;2023-02-18T18:08:16;8.40;99.90
13389;DHT22;6764;53.250;10.410;2023-02-18T18:10:51;8.50;99.90
13389;DHT22;6764;53.250;10.410;2023-02-18T18:13:23;8.40;99.90
13389;DHT22;6764;53.250;10.410;2023-02-18T18:15:49;8.40;99.90
13389;DHT22;6764;53.250;10.410;2023-02-18T18:18:15;8.30;99.90
13389;DHT22;6764;53.250;10.410;2023-02-18T18:20:45;8.30;99.90
13389;DHT22;6764;53.250;10.410;2023-02-18T18:23:14;8.30;99.90
13389;DHT22;6764;53.250;10.410;2023-02-18T18:25:44;8.30;99.90
13389;DHT22;6764;53.250;10.410;2023-02-18T18:28:10;8.40;99.90
13389;DHT22;6764;53.250;10.410;2023-02-18T18:30:39;8.40;99.90
13389;DHT22;6764;53.250;10.410;2023-02-18T18:33:29;8.40;99.90
13389;DHT22;6764;53.250;10.410;2023-02-18T18:35:56;8.40;99.90